Time;durP1;ratioP1;P1;durP2;ratioP2;P2;SDS_P1;SDS_P2;PMS_P1;PMS_P2;Temp;Humidity;BMP_temperature;BMP_pressure;BME280_temperature;BME280_humidity;BME280_pressure;Samples;Min_cycle;Max_cycle;Signal;HPM_P1;HPM_P2
2021/11/23 00:00:15;;;;;;;1.57;1.13;;;;;;;3.86;92.34;97066.41;5035036;28;20233;-67
2021/11/23 00:02:43;;;;;;;1.47;0.80;;;;;;;3.87;92.45;97070.69;5037237;28;20229;-70
2021/11/23 00:05:13;;;;;;;1.70;1.00;;;;;;;4.00;91.70;97078.41;5032652;28;20213;-66
2021/11/23 00:07:39;;;;;;;1.30;1.20;;;;;;;3.83;91.63;97065.81;5034057;28;20204;-67
2021/11/23 00:10:07;;;;;;;5.77;1.87;;;;;;;3.85;91.67;97080.38;5033972;28;20223;-67
2021/11/23 00:12:34;;;;;;;0.73;0.70;;;;;;;3.75;91.51;97074.19;5033393;28;20221;-69
2021/11/23 00:15:01;;;;;;;1.03;0.80;;;;;;;4.00;90.61;97063.59;5033106;28;20224;-66
2021/11/23 00:17:27;;;;;;;1.27;1.17;;;;;;;3.82;90.83;97078.03;5033716;28;20281;-70
2021/11/23 00:19:54;;;;;;;1.60;1.50;;;;;;;3.72;90.81;97074.44;5026210;28;20234;-67
2021/11/23 00:22:22;;;;;;;3.07;1.80;;;;;;;4.04;90.67;97070.22;5032441;28;20307;-67
2021/11/23 00:24:49;;;;;;;2.17;1.10;;;;;;;3.67;90.61;97076.56;5034373;28;20203;-67
2021/11/23 00:27:15;;;;;;;1.23;0.90;;;;;;;3.54;91.24;97072.41;5032425;28;20211;-67
2021/11/23 00:29:42;;;;;;;1.13;1.10;;;;;;;3.47;91.32;97080.78;5034704;28;20197;-68
2021/11/23 00:32:08;;;;;;;2.80;1.50;;;;;;;3.28;92.87;97083.06;5034224;28;20215;-66
2021/11/23 00:34:36;;;;;;;1.63;0.87;;;;;;;3.28;92.82;97073.47;5034086;28;20212;-67
2021/11/23 00:37:02;;;;;;;2.40;1.80;;;;;;;3.39;92.37;97081.34;5034563;28;20274;-66
2021/11/23 00:39:30;;;;;;;1.70;1.57;;;;;;;3.61;92.48;97075.38;5036753;28;20271;-66
2021/11/23 00:41:57;;;;;;;1.10;1.00;;;;;;;3.30;91.61;97071.59;5037947;28;20297;-66
2021/11/23 00:44:23;;;;;;;3.93;1.23;;;;;;;3.47;92.08;97072.97;5038062;28;20200;-67
2021/11/23 00:46:50;;;;;;;1.67;1.17;;;;;;;3.41;92.10;97079.47;5038235;28;20260;-68
2021/11/23 00:49:17;;;;;;;1.27;1.17;;;;;;;3.37;92.31;97074.56;5038427;28;20201;-66
2021/11/23 00:51:44;;;;;;;2.73;1.47;;;;;;;3.28;92.04;97080.47;5038012;28;20212;-67
2021/11/23 00:54:11;;;;;;;2.13;1.37;;;;;;;3.49;91.69;97082.31;5039466;28;20232;-67
2021/11/23 00:56:39;;;;;;;1.67;1.13;;;;;;;3.84;90.39;97089.13;5039214;28;20293;-66
2021/11/23 00:59:06;;;;;;;1.63;1.30;;;;;;;3.29;91.27;97089.94;5040047;28;20216;-67
2021/11/23 01:01:33;;;;;;;7.23;1.90;;;;;;;3.17;91.71;97090.81;5037759;28;20244;-69
2021/11/23 01:04:00;;;;;;;2.33;1.60;;;;;;;3.42;91.11;97099.34;5038271;28;20220;-67
2021/11/23 01:06:26;;;;;;;4.00;1.17;;;;;;;2.95;92.77;97101.13;5033428;28;20198;-66
2021/11/23 01:08:53;;;;;;;1.37;1.13;;;;;;;3.11;92.85;97093.91;5039659;28;20221;-68
2021/11/23 01:11:20;;;;;;;3.00;1.83;;;;;;;3.35;91.74;97094.72;5034669;28;20317;-66
2021/11/23 01:13:50;;;;;;;2.23;1.53;;;;;;;3.50;91.87;97101.38;5036652;28;20197;-66
2021/11/23 01:16:18;;;;;;;2.20;1.53;;;;;;;3.36;91.72;97106.78;5033738;28;20231;-65
2021/11/23 01:18:45;;;;;;;2.20;1.67;;;;;;;3.46;90.62;97110.38;5033288;28;20208;-66
2021/11/23 01:21:13;;;;;;;1.93;1.63;;;;;;;3.26;91.63;97109.22;5035097;28;20229;-65
2021/11/23 01:23:40;;;;;;;1.30;1.20;;;;;;;3.23;91.65;97100.81;5031117;28;20201;-67
2021/11/23 01:26:07;;;;;;;1.30;1.20;;;;;;;3.37;91.15;97111.03;5028880;28;20213;-69
2021/11/23 01:28:34;;;;;;;1.37;1.23;;;;;;;3.06;91.94;97109.00;5031999;28;20209;-70
2021/11/23 01:31:02;;;;;;;3.47;1.30;;;;;;;3.21;92.17;97102.72;5032091;28;20611;-67
2021/11/23 01:33:29;;;;;;;2.10;1.47;;;;;;;3.31;91.22;97106.28;5029753;28;20216;-69
2021/11/23 01:35:56;;;;;;;0.80;0.80;;;;;;;3.05;90.90;97094.31;5013702;28;20229;-70
2021/11/23 01:38:23;;;;;;;1.67;1.37;;;;;;;3.27;90.49;97091.81;5028103;28;20210;-68
2021/11/23 01:40:49;;;;;;;6.50;1.97;;;;;;;3.18;91.12;97097.69;5028129;28;20229;-70
2021/11/23 01:43:16;;;;;;;1.33;1.23;;;;;;;2.88;91.71;97094.72;5028450;28;20197;-68
2021/11/23 01:45:42;;;;;;;1.90;1.07;;;;;;;3.22;90.48;97105.19;5030827;28;20210;-66
2021/11/23 01:48:11;;;;;;;2.80;1.43;;;;;;;3.57;90.47;97097.41;5033173;28;20212;-69
2021/11/23 01:50:38;;;;;;;2.00;1.63;;;;;;;3.12;91.16;97095.56;5033154;28;20228;-68
2021/11/23 01:53:06;;;;;;;1.40;1.30;;;;;;;3.07;91.42;97098.50;5032380;28;20682;-68
2021/11/23 01:55:35;;;;;;;1.60;1.50;;;;;;;3.21;90.98;97100.09;5031761;28;20588;-67
2021/11/23 01:58:02;;;;;;;1.80;1.40;;;;;;;3.22;91.13;97104.34;5031914;28;20202;-66
2021/11/23 02:00:30;;;;;;;3.47;1.23;;;;;;;3.06;91.12;97101.22;5035568;28;20240;-68
2021/11/23 02:02:56;;;;;;;1.50;1.40;;;;;;;3.22;90.53;97096.53;5032960;28;20240;-70
2021/11/23 02:05:24;;;;;;;3.83;2.00;;;;;;;3.46;90.08;97095.56;5031420;28;21061;-68
2021/11/23 02:07:51;;;;;;;0.93;0.90;;;;;;;3.12;89.41;97098.97;5032052;28;20202;-69
2021/11/23 02:10:17;;;;;;;1.93;1.27;;;;;;;3.18;89.50;97105.50;5032301;28;20236;-69
2021/11/23 02:12:44;;;;;;;2.93;1.10;;;;;;;3.14;89.07;97106.69;5031265;28;20205;-67
2021/11/23 02:15:12;;;;;;;1.37;0.97;;;;;;;3.10;90.58;97105.25;5032336;28;20209;-69
2021/11/23 02:17:39;;;;;;;2.00;1.07;;;;;;;3.02;90.72;97103.19;5032693;28;20206;-66
2021/11/23 02:20:11;;;;;;;1.07;0.97;;;;;;;3.15;91.20;97103.16;5032321;28;20236;-65
2021/11/23 02:22:38;;;;;;;6.80;1.63;;;;;;;2.90;90.42;97110.22;5034345;28;20206;-67
2021/11/23 02:25:06;;;;;;;1.90;1.27;;;;;;;3.10;90.42;97106.06;5032723;28;20278;-69
2021/11/23 02:27:33;;;;;;;1.67;1.10;;;;;;;3.04;89.97;97103.94;5031891;28;20202;-67
2021/11/23 02:29:59;;;;;;;1.63;1.00;;;;;;;2.95;89.57;97108.13;5032380;28;20229;-66
2021/11/23 02:32:26;;;;;;;2.03;1.57;;;;;;;2.94;89.62;97099.50;5031002;28;20232;-65
2021/11/23 02:34:52;;;;;;;1.97;1.57;;;;;;;2.81;89.96;97106.50;5025795;28;20216;-66
2021/11/23 02:37:20;;;;;;;2.40;1.27;;;;;;;3.02;90.09;97105.78;5029089;28;20220;-66
2021/11/23 02:39:46;;;;;;;1.53;1.10;;;;;;;2.76;89.99;97113.81;5025059;28;20213;-67
2021/11/23 02:42:13;;;;;;;2.07;1.10;;;;;;;3.01;89.32;97106.72;5028187;28;20206;-70
2021/11/23 02:44:43;;;;;;;1.87;1.70;;;;;;;3.22;89.25;97106.94;5027473;28;20206;-66
2021/11/23 02:47:10;;;;;;;3.10;2.07;;;;;;;2.97;89.12;97101.06;5028426;28;20685;-67
2021/11/23 02:49:36;;;;;;;1.43;1.13;;;;;;;2.78;89.80;97105.91;5028140;28;20256;-65
2021/11/23 02:52:07;;;;;;;5.33;1.20;;;;;;;2.89;90.00;97106.81;5023014;28;20211;-67
2021/11/23 02:54:36;;;;;;;1.87;1.17;;;;;;;2.95;89.98;97101.13;5024825;28;20198;-67
2021/11/23 02:57:02;;;;;;;9.47;1.20;;;;;;;2.70;90.35;97108.19;5026024;28;20226;-68
2021/11/23 02:59:29;;;;;;;2.07;1.20;;;;;;;2.87;90.43;97103.47;5027932;28;20200;-66
2021/11/23 03:01:56;;;;;;;5.63;2.13;;;;;;;2.90;89.35;97110.22;5027190;28;20251;-66
2021/11/23 03:04:22;;;;;;;2.63;1.47;;;;;;;3.03;89.00;97101.44;5027457;28;20235;-69
2021/11/23 03:06:49;;;;;;;2.33;1.67;;;;;;;2.89;89.70;97112.00;5026972;28;20202;-66
2021/11/23 03:09:15;;;;;;;1.47;1.37;;;;;;;2.83;90.14;97114.22;5025599;28;20317;-66
2021/11/23 03:11:43;;;;;;;1.13;1.00;;;;;;;3.21;90.23;97107.91;5025238;28;20316;-69
2021/11/23 03:14:10;;;;;;;0.93;0.93;;;;;;;2.81;89.33;97114.31;5026830;28;20205;-66
2021/11/23 03:16:37;;;;;;;3.73;0.90;;;;;;;3.08;88.80;97107.13;5025054;28;20235;-67
2021/11/23 03:19:03;;;;;;;4.23;1.80;;;;;;;3.14;88.52;97104.06;5024506;28;20202;-66
2021/11/23 03:21:30;;;;;;;1.90;1.23;;;;;;;3.17;87.75;97101.25;5023889;28;20237;-70
2021/11/23 03:23:56;;;;;;;4.87;1.97;;;;;;;3.31;87.07;97103.66;5019674;28;20206;-69
2021/11/23 03:26:24;;;;;;;2.73;1.60;;;;;;;3.07;87.50;97105.47;5019314;28;20347;-66
2021/11/23 03:28:52;;;;;;;2.40;1.17;;;;;;;3.40;86.88;97110.81;5020622;28;20198;-68
2021/11/23 03:31:18;;;;;;;1.63;1.07;;;;;;;3.10;86.96;97115.66;5020849;28;20794;-65
2021/11/23 03:33:45;;;;;;;2.40;1.90;;;;;;;3.12;87.35;97113.78;5022409;28;20211;-66
2021/11/23 03:36:11;;;;;;;2.23;1.90;;;;;;;3.23;86.32;97116.44;5017682;28;20324;-69
2021/11/23 03:38:38;;;;;;;10.97;2.20;;;;;;;3.17;86.84;97117.72;5020664;28;20700;-67
2021/11/23 03:41:05;;;;;;;1.03;1.03;;;;;;;2.91;87.46;97120.53;5017819;28;20225;-66
2021/11/23 03:43:31;;;;;;;2.53;2.30;;;;;;;2.97;87.26;97120.09;5019909;28;20206;-70
2021/11/23 03:45:59;;;;;;;1.43;1.17;;;;;;;3.27;86.98;97112.66;5017132;28;20204;-70
2021/11/23 03:48:25;;;;;;;1.70;1.47;;;;;;;2.82;87.72;97115.16;5019402;28;20209;-69
2021/11/23 03:50:52;;;;;;;4.13;2.17;;;;;;;2.74;88.08;97118.28;5019152;28;20320;-68
2021/11/23 03:53:19;;;;;;;2.30;1.50;;;;;;;2.96;88.00;97120.22;5019304;28;20211;-66
2021/11/23 03:55:50;;;;;;;1.50;1.40;;;;;;;3.02;87.66;97120.59;5017102;28;20209;-70
2021/11/23 03:58:16;;;;;;;3.03;1.83;;;;;;;3.05;87.34;97122.97;5018098;28;20217;-67
2021/11/23 04:00:43;;;;;;;2.60;1.20;;;;;;;3.04;87.65;97123.91;5023235;28;20229;-70
2021/11/23 04:03:11;;;;;;;1.03;0.93;;;;;;;3.45;86.96;97116.50;5023429;28;20584;-69
2021/11/23 04:05:37;;;;;;;2.03;1.00;;;;;;;2.90;87.14;97116.25;5025183;28;20209;-70
2021/11/23 04:08:04;;;;;;;4.63;1.67;;;;;;;3.05;88.21;97122.97;5025835;28;20221;-69
2021/11/23 04:10:31;;;;;;;0.87;0.87;;;;;;;2.79;88.19;97118.81;5025422;28;20435;-67
2021/11/23 04:12:57;;;;;;;1.03;0.90;;;;;;;2.96;87.17;97118.41;5024776;28;20203;-67
2021/11/23 04:15:24;;;;;;;2.10;1.47;;;;;;;3.05;86.77;97117.75;5022129;28;20212;-67
2021/11/23 04:17:52;;;;;;;1.90;1.57;;;;;;;3.04;86.80;97116.09;5023914;28;20713;-69
2021/11/23 04:20:19;;;;;;;1.20;0.90;;;;;;;2.95;87.62;97111.53;5024193;28;20271;-70
2021/11/23 04:22:46;;;;;;;1.60;1.50;;;;;;;2.83;87.91;97122.84;5023950;28;20198;-71
2021/11/23 04:25:14;;;;;;;1.23;1.13;;;;;;;3.10;86.88;97115.66;5023232;28;20203;-67
2021/11/23 04:27:41;;;;;;;2.40;1.20;;;;;;;2.94;86.66;97116.88;5023516;28;20194;-71
2021/11/23 04:30:11;;;;;;;2.73;1.80;;;;;;;3.18;86.32;97122.00;5023158;28;20228;-70
2021/11/23 04:32:37;;;;;;;14.07;1.23;;;;;;;3.13;85.74;97124.09;5022516;28;20206;-71
2021/11/23 04:35:05;;;;;;;0.93;0.77;;;;;;;3.00;86.48;97125.06;5020663;28;20213;-67
2021/11/23 04:37:32;;;;;;;2.40;1.53;;;;;;;3.01;86.13;97131.94;5022972;28;20236;-71
2021/11/23 04:39:59;;;;;;;3.90;1.83;;;;;;;2.59;87.52;97145.38;5022922;28;20222;-70
2021/11/23 04:42:25;;;;;;;2.83;2.00;;;;;;;2.37;88.84;97153.94;5023694;28;20202;-67
2021/11/23 04:44:52;;;;;;;1.20;1.13;;;;;;;2.51;89.20;97142.50;5024271;28;20521;-66
2021/11/23 04:47:18;;;;;;;1.47;1.37;;;;;;;2.63;88.07;97141.63;5023022;28;20198;-70
2021/11/23 04:49:45;;;;;;;0.83;0.83;;;;;;;2.92;87.53;97134.38;5021414;28;20772;-70
2021/11/23 04:52:12;;;;;;;2.60;1.70;;;;;;;2.97;86.88;97140.91;5021163;28;20477;-67
2021/11/23 04:54:40;;;;;;;1.43;1.00;;;;;;;3.18;86.72;97139.38;5022769;28;20204;-70
2021/11/23 04:57:07;;;;;;;1.70;1.53;;;;;;;2.95;86.69;97142.78;5020089;28;20239;-70
2021/11/23 04:59:34;;;;;;;2.33;1.73;;;;;;;2.70;86.94;97150.69;5020862;28;20201;-69
2021/11/23 05:02:01;;;;;;;1.40;1.30;;;;;;;2.67;87.15;97150.91;5020382;28;21058;-71
2021/11/23 05:04:27;;;;;;;1.40;1.30;;;;;;;2.68;86.85;97149.94;5020862;28;20203;-71
2021/11/23 05:06:54;;;;;;;1.23;0.93;;;;;;;2.54;87.14;97162.25;5019145;28;20763;-66
2021/11/23 05:09:20;;;;;;;0.80;0.80;;;;;;;2.57;86.74;97156.81;5019996;28;20494;-68
2021/11/23 05:11:48;;;;;;;1.70;1.23;;;;;;;2.75;87.18;97145.97;5019820;28;20229;-69
2021/11/23 05:14:15;;;;;;;1.77;1.53;;;;;;;2.72;85.68;97158.38;5019047;28;20301;-69
2021/11/23 05:16:42;;;;;;;3.13;1.33;;;;;;;2.78;85.59;97147.53;5019480;28;20233;-67
2021/11/23 05:19:08;;;;;;;0.60;0.60;;;;;;;2.69;86.04;97156.81;5023592;28;20201;-67
2021/11/23 05:21:35;;;;;;;2.33;1.63;;;;;;;2.68;85.21;97157.75;5023862;28;20228;-70
2021/11/23 05:24:02;;;;;;;1.30;1.20;;;;;;;2.33;85.36;97168.09;5023600;28;20775;-67
2021/11/23 05:26:29;;;;;;;4.03;1.13;;;;;;;2.53;85.99;97166.63;5023829;28;20197;-67
2021/11/23 05:28:57;;;;;;;0.60;0.60;;;;;;;2.86;85.87;97160.84;5024759;28;20202;-70
2021/11/23 05:31:23;;;;;;;3.03;1.40;;;;;;;2.65;85.39;97162.34;5023984;28;20226;-70
2021/11/23 05:33:50;;;;;;;1.97;1.10;;;;;;;2.62;85.17;97162.53;5023999;28;20271;-71
2021/11/23 05:36:16;;;;;;;0.67;0.67;;;;;;;2.64;85.13;97158.91;5022439;28;20232;-69
2021/11/23 05:38:43;;;;;;;5.00;1.83;;;;;;;2.38;85.59;97168.63;5024978;28;20212;-71
2021/11/23 05:41:09;;;;;;;4.43;1.27;;;;;;;2.48;84.98;97168.72;5022120;28;20240;-70
2021/11/23 05:43:36;;;;;;;1.70;1.20;;;;;;;2.61;84.50;97174.72;5020054;28;20207;-66
2021/11/23 05:46:03;;;;;;;1.53;1.43;;;;;;;2.83;84.48;97161.06;5023673;28;20201;-67
2021/11/23 05:48:30;;;;;;;0.90;0.90;;;;;;;2.70;84.59;97163.69;5024072;28;20683;-70
2021/11/23 05:51:02;;;;;;;1.70;1.43;;;;;;;2.74;84.51;97165.13;5022702;28;20571;-71
2021/11/23 05:53:29;;;;;;;1.23;1.10;;;;;;;2.73;83.30;97167.84;5023041;28;20253;-67
2021/11/23 05:55:55;;;;;;;1.73;1.10;;;;;;;2.51;84.35;97184.09;5023336;28;21301;-67
2021/11/23 05:58:22;;;;;;;1.87;1.33;;;;;;;2.59;84.51;97176.59;5023287;28;20225;-71
2021/11/23 06:00:48;;;;;;;1.43;1.03;;;;;;;2.63;84.24;97177.22;5022233;28;20237;-67
2021/11/23 06:03:16;;;;;;;1.20;1.07;;;;;;;2.89;84.27;97164.06;5023018;28;21106;-66
2021/11/23 06:05:43;;;;;;;1.03;0.93;;;;;;;2.64;83.86;97184.91;5021348;28;20209;-67
2021/11/23 06:08:09;;;;;;;0.97;0.90;;;;;;;2.64;83.87;97169.31;5021849;28;20198;-70
2021/11/23 06:10:36;;;;;;;1.70;1.57;;;;;;;2.60;84.49;97157.47;5022065;28;20226;-69
2021/11/23 06:13:02;;;;;;;0.73;0.73;;;;;;;2.64;83.92;97163.28;5022626;28;20218;-71
2021/11/23 06:15:29;;;;;;;1.10;1.00;;;;;;;2.50;83.84;97176.41;5021287;28;20209;-71
2021/11/23 06:18:01;;;;;;;1.63;1.53;;;;;;;2.57;84.13;97172.44;5021174;28;20237;-69
2021/11/23 06:20:29;;;;;;;2.93;1.80;;;;;;;2.74;83.55;97167.75;5021731;28;20237;-68
2021/11/23 06:22:56;;;;;;;2.13;1.07;;;;;;;2.53;83.17;97171.84;5021002;28;20224;-73
2021/11/23 06:25:22;;;;;;;1.67;1.13;;;;;;;2.16;83.73;97179.63;5021289;28;20204;-70
2021/11/23 06:27:49;;;;;;;1.33;1.20;;;;;;;2.05;85.02;97179.56;5021152;28;20198;-72
2021/11/23 06:30:17;;;;;;;2.23;1.80;;;;;;;2.20;85.69;97183.72;5020389;28;20224;-67
2021/11/23 06:32:43;;;;;;;2.13;1.87;;;;;;;2.13;85.69;97186.84;5020736;28;20202;-71
2021/11/23 06:35:10;;;;;;;1.00;0.90;;;;;;;2.09;85.64;97185.38;5020983;28;20233;-70
2021/11/23 06:37:38;;;;;;;2.47;1.20;;;;;;;2.28;85.93;97185.78;5020208;28;20226;-71
2021/11/23 06:40:06;;;;;;;2.27;1.63;;;;;;;2.31;85.47;97196.00;5020349;28;20237;-72
2021/11/23 06:42:33;;;;;;;1.17;1.17;;;;;;;2.05;85.81;97189.94;5020351;28;21243;-70
2021/11/23 06:44:59;;;;;;;9.30;1.57;;;;;;;1.49;87.36;97193.75;5020004;28;20580;-71
2021/11/23 06:47:26;;;;;;;3.93;2.60;;;;;;;1.20;89.04;97202.59;5018530;28;20194;-72
2021/11/23 06:49:52;;;;;;;1.07;1.07;;;;;;;1.10;90.87;97203.28;5019783;28;20233;-71
2021/11/23 06:52:20;;;;;;;1.63;1.20;;;;;;;1.01;91.87;97212.47;5018953;28;20836;-67
2021/11/23 06:54:47;;;;;;;7.43;2.13;;;;;;;1.53;90.58;97211.66;5020708;28;20293;-72
2021/11/23 06:57:14;;;;;;;1.50;1.40;;;;;;;1.37;89.63;97218.75;5019587;28;20234;-71
2021/11/23 06:59:41;;;;;;;0.50;0.50;;;;;;;1.37;89.67;97217.94;5019332;28;20214;-70
2021/11/23 07:02:08;;;;;;;0.97;0.93;;;;;;;1.41;88.76;97216.81;5019947;28;20209;-69
2021/11/23 07:04:34;;;;;;;18.37;1.40;;;;;;;1.24;90.08;97220.47;5020762;28;20735;-70
2021/11/23 07:07:01;;;;;;;0.57;0.57;;;;;;;1.10;91.22;97231.84;5019705;28;20403;-71
2021/11/23 07:09:28;;;;;;;1.13;1.00;;;;;;;0.87;92.04;97233.25;5019878;28;20213;-67
2021/11/23 07:11:56;;;;;;;1.17;1.07;;;;;;;1.19;92.79;97232.91;5018964;28;20237;-69
2021/11/23 07:14:22;;;;;;;1.37;1.27;;;;;;;1.41;91.24;97238.44;5019953;28;20198;-67
2021/11/23 07:16:51;;;;;;;0.80;0.80;;;;;;;1.73;89.46;97238.94;5018095;28;20201;-67
2021/11/23 07:19:18;;;;;;;1.30;1.20;;;;;;;1.33;90.79;97240.66;5018898;28;20429;-71
2021/11/23 07:21:45;;;;;;;2.83;1.77;;;;;;;1.54;91.14;97236.72;5018246;28;20229;-69
2021/11/23 07:24:12;;;;;;;0.53;0.53;;;;;;;1.54;90.33;97247.09;5018245;28;20205;-71
2021/11/23 07:26:38;;;;;;;2.37;1.83;;;;;;;1.82;89.34;97239.19;5017971;28;20202;-70
2021/11/23 07:29:07;;;;;;;2.43;1.77;;;;;;;1.90;89.69;97242.94;5018089;28;20198;-70
2021/11/23 07:31:34;;;;;;;1.77;1.00;;;;;;;1.67;90.21;97245.38;5017892;28;20223;-67
2021/11/23 07:34:01;;;;;;;3.53;1.80;;;;;;;1.99;88.68;97254.50;5018481;28;20210;-71
2021/11/23 07:36:27;;;;;;;1.77;1.40;;;;;;;2.20;87.91;97255.66;5018667;28;20217;-71
2021/11/23 07:38:56;;;;;;;2.57;1.87;;;;;;;2.40;88.18;97257.78;5018102;28;20585;-68
2021/11/23 07:41:23;;;;;;;2.17;1.90;;;;;;;2.21;88.27;97259.94;5017764;28;20222;-71
2021/11/23 07:43:50;;;;;;;1.57;1.40;;;;;;;2.35;87.40;97254.66;5018673;28;20308;-70
2021/11/23 07:46:19;;;;;;;2.47;1.57;;;;;;;2.90;87.10;97256.81;5018207;28;20348;-71
2021/11/23 07:48:45;;;;;;;1.57;1.47;;;;;;;2.36;86.92;97256.31;5018415;28;20209;-71
2021/11/23 07:51:12;;;;;;;1.33;1.23;;;;;;;2.68;85.88;97258.41;5019056;28;20232;-68
2021/11/23 07:53:39;;;;;;;4.67;2.30;;;;;;;2.49;86.90;97257.97;5018675;28;20209;-69
2021/11/23 07:56:05;;;;;;;1.60;1.50;;;;;;;2.50;87.14;97260.47;5019008;28;20210;-67
2021/11/23 07:58:33;;;;;;;1.70;1.53;;;;;;;2.56;87.67;97261.84;5019534;28;20484;-69
2021/11/23 08:00:59;;;;;;;1.23;1.13;;;;;;;2.25;87.92;97261.41;5018148;28;20735;-70
2021/11/23 08:03:27;;;;;;;1.70;1.57;;;;;;;2.56;88.78;97264.44;5018503;28;20447;-68
2021/11/23 08:05:53;;;;;;;2.50;1.33;;;;;;;2.41;87.99;97266.28;5018606;28;20588;-70
2021/11/23 08:08:20;;;;;;;10.27;2.23;;;;;;;2.26;88.53;97270.88;5019464;28;20205;-71
2021/11/23 08:10:46;;;;;;;2.37;1.67;;;;;;;2.41;88.43;97266.28;5020735;28;20225;-69
2021/11/23 08:13:13;;;;;;;2.20;1.10;;;;;;;2.28;88.23;97268.97;5018748;28;20481;-70
2021/11/23 08:15:40;;;;;;;2.13;1.20;;;;;;;2.05;90.20;97269.66;5018806;28;20233;-70
2021/11/23 08:18:08;;;;;;;1.00;1.00;;;;;;;2.55;88.48;97273.19;5019677;28;20221;-70
2021/11/23 08:20:37;;;;;;;1.37;0.93;;;;;;;3.05;87.72;97279.19;5017058;28;20692;-70
2021/11/23 08:23:04;;;;;;;2.97;1.93;;;;;;;2.54;88.11;97272.34;5015892;28;20615;-70
2021/11/23 08:25:32;;;;;;;0.97;0.97;;;;;;;2.69;87.58;97271.31;5015804;28;20726;-70
2021/11/23 08:27:58;;;;;;;2.60;1.90;;;;;;;2.70;87.42;97272.97;5016335;28;20202;-70
2021/11/23 08:30:25;;;;;;;1.43;1.23;;;;;;;2.97;86.89;97281.50;5015867;28;20227;-70
2021/11/23 08:32:52;;;;;;;1.60;1.33;;;;;;;2.87;86.78;97290.03;5016578;28;20570;-70
2021/11/23 08:35:19;;;;;;;6.03;2.13;;;;;;;3.27;85.89;97287.16;5012727;28;20224;-70
2021/11/23 08:37:46;;;;;;;2.10;1.07;;;;;;;3.17;86.70;97291.34;5014986;28;20276;-70
2021/11/23 08:40:13;;;;;;;2.53;1.50;;;;;;;2.82;86.88;97282.53;5015660;28;20230;-70
2021/11/23 08:42:41;;;;;;;1.40;1.30;;;;;;;3.02;85.86;97293.25;5016388;28;20495;-70
2021/11/23 08:45:09;;;;;;;2.10;1.13;;;;;;;3.31;86.66;97301.63;5015042;28;20526;-70
2021/11/23 08:47:36;;;;;;;1.70;1.60;;;;;;;2.72;86.57;97302.31;5015505;28;20206;-70
2021/11/23 08:50:04;;;;;;;1.43;1.30;;;;;;;2.93;87.38;97300.88;5015429;28;20221;-70
2021/11/23 08:52:30;;;;;;;2.93;1.43;;;;;;;3.09;86.69;97296.25;5016082;28;20622;-70
2021/11/23 08:54:58;;;;;;;1.53;1.07;;;;;;;3.17;87.95;97299.16;5015346;28;20685;-70
2021/11/23 08:57:25;;;;;;;1.63;1.30;;;;;;;3.26;86.52;97299.34;5015428;28;20952;-70
2021/11/23 09:00:04;;;;;;;1.87;1.67;;;;;;;3.38;85.73;97302.88;5015822;28;20204;-70
2021/11/23 09:02:31;;;;;;;2.43;1.70;;;;;;;3.39;85.16;97296.72;5015968;28;20195;-70
2021/11/23 09:04:58;;;;;;;2.00;1.63;;;;;;;3.47;84.97;97297.00;5015223;28;20213;-70
2021/11/23 09:07:24;;;;;;;2.00;1.57;;;;;;;3.54;85.41;97293.88;5015899;28;20679;-70
2021/11/23 09:09:51;;;;;;;3.20;1.87;;;;;;;3.70;84.15;97294.44;5016284;28;20483;-70
2021/11/23 09:12:19;;;;;;;0.73;0.73;;;;;;;3.77;85.31;97299.09;5015155;28;20198;-70
2021/11/23 09:14:46;;;;;;;3.50;2.10;;;;;;;3.60;84.95;97295.19;5015566;28;20657;-70
2021/11/23 09:17:12;;;;;;;5.23;1.73;;;;;;;3.47;85.29;97299.63;5014541;28;20213;-70
2021/11/23 09:19:40;;;;;;;2.07;1.33;;;;;;;3.33;84.54;97299.75;5015874;28;20230;-70
2021/11/23 09:22:06;;;;;;;2.33;2.23;;;;;;;3.47;85.13;97297.00;5014714;28;20516;-69
2021/11/23 09:24:33;;;;;;;6.50;2.53;;;;;;;3.05;86.09;97302.63;5016287;28;20472;-70
2021/11/23 09:27:00;;;;;;;1.63;1.47;;;;;;;3.09;86.62;97314.47;5015306;28;20295;-70
2021/11/23 09:29:27;;;;;;;2.63;1.90;;;;;;;3.15;88.76;97314.06;5016102;28;20197;-70
2021/11/23 09:31:54;;;;;;;1.37;1.27;;;;;;;3.18;86.85;97316.44;5015763;28;20724;-71
2021/11/23 09:34:22;;;;;;;1.63;1.10;;;;;;;3.26;86.95;97314.97;5012267;28;20293;-69
2021/11/23 09:36:51;;;;;;;4.33;2.33;;;;;;;3.32;86.47;97313.72;5014745;28;20746;-70
2021/11/23 09:39:17;;;;;;;7.93;1.97;;;;;;;3.15;87.68;97321.88;5015448;28;20229;-70
2021/11/23 09:41:44;;;;;;;1.93;1.80;;;;;;;3.19;86.71;97318.13;5015625;28;20232;-69
2021/11/23 09:44:10;;;;;;;2.33;1.27;;;;;;;3.45;85.96;97317.13;5015025;28;20202;-69
2021/11/23 09:46:39;;;;;;;3.80;1.67;;;;;;;3.99;85.29;97301.81;5014214;28;20599;-70
2021/11/23 09:49:08;;;;;;;1.13;1.03;;;;;;;4.03;84.08;97305.03;5015072;28;20570;-69
2021/11/23 09:51:36;;;;;;;2.40;1.60;;;;;;;3.96;85.04;97298.59;5015506;28;20402;-69
2021/11/23 09:54:06;;;;;;;2.10;1.43;;;;;;;3.75;86.54;97306.19;5015483;28;20228;-69
2021/11/23 09:56:34;;;;;;;4.17;2.47;;;;;;;3.64;86.96;97311.34;5015127;28;20205;-69
2021/11/23 09:59:01;;;;;;;0.60;0.60;;;;;;;3.43;87.65;97312.03;5015446;28;20238;-69
2021/11/23 10:01:30;;;;;;;3.00;2.27;;;;;;;3.99;85.12;97296.59;5014299;28;20329;-70
2021/11/23 10:04:04;;;;;;;1.93;1.27;;;;;;;4.02;87.41;97305.97;5016044;28;20214;-69
2021/11/23 10:06:31;;;;;;;1.83;1.50;;;;;;;4.01;85.56;97299.09;5018325;28;20214;-69
2021/11/23 10:08:58;;;;;;;0.80;0.80;;;;;;;3.83;87.06;97295.22;5018719;28;20479;-69
2021/11/23 10:11:26;;;;;;;2.10;1.57;;;;;;;4.48;84.29;97284.19;5018910;28;20225;-69
2021/11/23 10:13:55;;;;;;;1.83;1.33;;;;;;;4.77;82.22;97280.22;5018737;28;20217;-69
2021/11/23 10:16:23;;;;;;;4.47;2.07;;;;;;;4.94;80.67;97276.22;5017899;28;20201;-69
2021/11/23 10:18:51;;;;;;;3.77;1.53;;;;;;;4.98;81.42;97279.44;5018380;28;20234;-69
2021/11/23 10:21:21;;;;;;;3.17;1.53;;;;;;;4.95;83.64;97282.25;5018761;28;20596;-69
2021/11/23 10:23:52;;;;;;;1.63;1.17;;;;;;;4.85;82.11;97274.31;5018719;28;20202;-69
2021/11/23 10:26:20;;;;;;;3.13;2.50;;;;;;;4.98;83.21;97274.19;5017860;28;20498;-69
2021/11/23 10:28:51;;;;;;;5.67;2.07;;;;;;;5.10;81.56;97279.28;5019446;28;20600;-69
2021/11/23 10:31:18;;;;;;;2.00;1.27;;;;;;;4.69;83.18;97282.59;5018302;28;20229;-69
2021/11/23 10:33:47;;;;;;;8.53;2.20;;;;;;;4.66;84.68;97281.03;5017961;28;20201;-69
2021/11/23 10:36:19;;;;;;;3.40;1.87;;;;;;;4.73;84.28;97284.03;5015790;28;20214;-69
2021/11/23 10:38:46;;;;;;;1.10;1.00;;;;;;;4.78;83.05;97285.31;5018063;28;20563;-69
2021/11/23 10:41:15;;;;;;;4.53;2.30;;;;;;;4.68;84.63;97284.34;5018584;28;20268;-70
2021/11/23 10:43:44;;;;;;;2.00;1.63;;;;;;;5.08;84.50;97281.19;5018120;28;20228;-70
2021/11/23 10:46:14;;;;;;;1.20;1.10;;;;;;;5.01;85.42;97276.56;5018052;28;20472;-70
2021/11/23 10:48:41;;;;;;;4.03;2.17;;;;;;;4.32;85.36;97283.69;5017675;28;20206;-70
2021/11/23 10:51:10;;;;;;;1.63;1.40;;;;;;;5.06;82.96;97267.41;5017827;28;20233;-70
2021/11/23 10:53:42;;;;;;;3.10;1.87;;;;;;;5.13;83.79;97273.84;5017626;28;20683;-70
2021/11/23 10:56:11;;;;;;;3.50;1.67;;;;;;;5.26;82.44;97268.50;5017468;28;20503;-70
2021/11/23 10:58:39;;;;;;;1.70;1.37;;;;;;;4.70;85.98;97268.56;5017793;28;20228;-70
2021/11/23 11:01:06;;;;;;;1.33;1.23;;;;;;;4.82;84.91;97271.94;5016946;28;20804;-70
2021/11/23 11:03:34;;;;;;;2.60;1.60;;;;;;;4.92;85.52;97259.81;5018014;28;20214;-70
2021/11/23 11:06:02;;;;;;;3.87;2.53;;;;;;;5.06;84.03;97263.97;5016565;28;20202;-69
2021/11/23 11:08:33;;;;;;;2.93;2.07;;;;;;;5.42;82.74;97261.09;5017915;28;20203;-70
2021/11/23 11:11:01;;;;;;;2.57;1.67;;;;;;;5.40;84.13;97263.84;5016987;28;20308;-70
2021/11/23 11:13:29;;;;;;;3.10;1.27;;;;;;;5.45;85.53;97264.31;5017712;28;20197;-70
2021/11/23 11:15:57;;;;;;;5.33;1.90;;;;;;;5.83;82.44;97259.50;5016474;28;20236;-70
2021/11/23 11:18:24;;;;;;;1.60;1.50;;;;;;;5.41;83.24;97257.66;5017358;28;20702;-69
2021/11/23 11:20:56;;;;;;;5.40;2.20;;;;;;;5.65;82.18;97255.69;5017768;28;20230;-70
2021/11/23 11:23:25;;;;;;;1.73;1.33;;;;;;;5.90;81.30;97245.78;5017528;28;20579;-70
2021/11/23 11:26:12;;;;;;;1.97;1.30;;;;;;;5.90;84.69;97242.34;5016963;28;20527;-70
2021/11/23 11:28:45;;;;;;;5.07;2.83;;;;;;;5.53;84.17;97252.28;5017150;28;20205;-69
2021/11/23 11:31:36;;;;;;;3.50;1.83;;;;;;;5.98;83.72;97246.00;5016964;28;20785;-70
2021/11/23 11:34:21;;;;;;;1.03;0.93;;;;;;;5.88;82.63;97242.50;5015855;28;20287;-70
2021/11/23 11:36:49;;;;;;;2.30;2.10;;;;;;;5.76;81.63;97235.63;5015935;28;20211;-69
2021/11/23 11:39:50;;;;;;;3.53;2.73;;;;;;;5.79;83.00;97230.16;5016926;28;20960;-70
2021/11/23 11:42:54;;;;;;;1.87;1.70;;;;;;;5.80;83.00;97225.75;5017081;28;20663;-70